Home > Products > Valid Products > TAF

000
FTUS44 KSHV 201700
TAFGGG
TAF
KGGG 201739Z 2018/2118 12008KT P6SM SCT040
     FM210100 12004KT P6SM SCT250
     FM211500 22005KT P6SM SCT060 SCT250=



000
FTUS44 KSHV 201700
TAFELD
TAF
KELD 201739Z 2018/2118 10005KT P6SM SCT040
     FM210100 VRB03KT P6SM FEW250
      TEMPO 2108/2112 3SM BR
     FM211500 27005KT P6SM SCT040 SCT250=



000
FTUS44 KSHV 201700
TAFTYR
TAF
KTYR 201739Z 2018/2118 11010KT P6SM SCT040
     FM210200 13004KT P6SM SCT250
     FM211500 20005KT P6SM SCT100 SCT250=



000
FTUS44 KSHV 201700
TAFSHV
TAF
KSHV 201739Z 2018/2118 13005KT P6SM SCT040
     FM210200 VRB02KT P6SM SKC
     FM211700 25004KT P6SM SCT035 SCT250=



000
FTUS44 KSHV 201700
TAFMLU
TAF
KMLU 201739Z 2018/2118 VRB03KT P6SM SCT040
     FM210200 00000KT P6SM SKC
      TEMPO 2109/2112 4SM BR
     FM211500 25004KT P6SM SCT035 SCT250=



000
FTUS44 KSHV 201700
TAFLFK
TAF
KLFK 201739Z 2018/2118 10010KT P6SM SCT040
     FM210200 VRB03KT P6SM FEW250
     FM211500 VRB03KT P6SM SCT040 SCT250=



000
FTUS44 KSHV 201700
TAFTXK
TAF
KTXK 201739Z 2018/2118 VRB04KT P6SM SCT040 SCT070
     FM210300 00000KT P6SM FEW070
     FM211600 28005KT P6SM SCT040 SCT250=



000
FTUS44 KSHV 201400 AAA
TAFMLU
TAF AMD
KMLU 201442Z 2015/2112 00000KT P6SM SKC
     FM201700 09005KT P6SM SCT050
     FM210100 00000KT P6SM SKC
      TEMPO 2109/2112 4SM BR=



000
FTUS44 KSHV 201100
TAFSHV
TAF
KSHV 201120Z 2012/2112 00000KT P6SM SKC
      TEMPO 2012/2014 4SM BR
     FM201700 10007KT P6SM SCT050
     FM210100 VRB02KT P6SM SKC=



000
FTUS44 KSHV 201100
TAFELD
TAF
KELD 201120Z 2012/2112 00000KT P6SM SKC
      TEMPO 2012/2014 2SM BR
     FM201700 10005KT P6SM SCT050
     FM210100 00000KT P6SM SKC
      TEMPO 2108/2112 3SM BR=



000
FTUS44 KSHV 201100
TAFTXK
TAF
KTXK 201120Z 2012/2112 00000KT 1SM BR BKN002
      TEMPO 2012/2013 1/4SM FG VV001
     FM201400 VRB03KT 5SM BR BKN020
      TEMPO 2014/2015 2SM BR OVC010
     FM201600 VRB04KT P6SM SCT040
     FM210100 00000KT P6SM SKC=



000
FTUS44 KSHV 201100
TAFGGG
TAF
KGGG 201120Z 2012/2112 VRB03KT P6SM SKC
      TEMPO 2012/2014 3SM BR
     FM201700 12006KT P6SM SCT045
     FM210100 00000KT P6SM SKC=



000
FTUS44 KSHV 201100
TAFLFK
TAF
KLFK 201120Z 2012/2112 VRB03KT P6SM SKC
     FM201800 12008KT P6SM SCT060
     FM210100 00000KT P6SM SKC=



000
FTUS44 KSHV 201100
TAFTYR
TAF
KTYR 201120Z 2012/2112 00000KT P6SM SKC
      TEMPO 2012/2014 4SM BR
     FM201800 13007KT P6SM SCT060
     FM210100 VRB02KT P6SM SKC=



000
FTUS44 KSHV 201100
TAFMLU
TAF
KMLU 201120Z 2012/2112 00000KT P6SM SKC
      TEMPO 2012/2015 3SM BR
     FM201700 09005KT P6SM SCT050
     FM210100 00000KT P6SM SKC
      TEMPO 2109/2112 4SM BR=



000
FTUS44 KSHV 201000 AAA
TAFTXK
TAF AMD
KTXK 201017Z 2010/2106 VRB03KT 1SM BR SKC
      TEMPO 2010/2013 1/4SM FG VV002
     FM201300 VRB05KT P6SM SCT030
      TEMPO 2013/2015 2SM BR BKN020
     FM210100 00000KT P6SM SKC=



000
FTUS44 KSHV 201000 AAA
TAFELD
TAF AMD
KELD 201010Z 2010/2106 VRB03KT P6SM SKC
      TEMPO 2010/2014 2SM BR
     FM201500 VRB04KT P6SM FEW050
     FM210100 00000KT P6SM SKC=



000
FTUS44 KSHV 201000 AAA
TAFGGG
TAF AMD
KGGG 201009Z 2010/2106 VRB03KT P6SM SKC
      TEMPO 2010/2013 4SM BR
     FM201600 12006KT P6SM FEW050
     FM210100 00000KT P6SM SKC=



000
FTUS44 KSHV 201000 AAA
TAFLFK
TAF AMD
KLFK 201008Z 2010/2106 06004KT P6SM SKC
     FM201500 11006KT P6SM FEW035
     FM210100 00000KT P6SM SKC=



000
FTUS44 KSHV 200500
TAFMLU
TAF
KMLU 200526Z 2006/2106 VRB02KT P6SM SKC
      TEMPO 2011/2013 5SM BR SKC
     FM201700 VRB05KT P6SM FEW050
     FM210100 00000KT P6SM SKC=



000
FTUS44 KSHV 200500
TAFGGG
TAF
KGGG 200526Z 2006/2106 13004KT P6SM SCT250
     FM201600 12006KT P6SM FEW050
     FM210100 00000KT P6SM SKC=



000
FTUS44 KSHV 200500
TAFSHV
TAF
KSHV 200526Z 2006/2106 11004KT P6SM SKC
     FM201700 10007KT P6SM FEW050
     FM210100 VRB02KT P6SM SKC=



000
FTUS44 KSHV 200500
TAFLFK
TAF
KLFK 200526Z 2006/2106 12004KT P6SM FEW045
     FM201000 15004KT 5SM BR SKC
      TEMPO 2011/2013 2SM BR
     FM201500 11006KT P6SM FEW035
     FM210100 00000KT P6SM SKC=



000
FTUS44 KSHV 200500
TAFTYR
TAF
KTYR 200526Z 2006/2106 13004KT P6SM SCT250
     FM201600 12006KT P6SM FEW050
     FM210100 VRB02KT P6SM SKC=



000
FTUS44 KSHV 200500
TAFTXK
TAF
KTXK 200526Z 2006/2106 VRB03KT 1SM BR SKC
      TEMPO 2006/2009 4SM BR
     FM201300 VRB05KT P6SM FEW050
     FM210100 00000KT P6SM SKC=



000
FTUS44 KSHV 200500
TAFELD
TAF
KELD 200526Z 2006/2106 VRB03KT P6SM SKC
     FM200700 00000KT 5SM BR SKC
      TEMPO 2010/2012 2SM BR
     FM201500 VRB04KT P6SM FEW050
     FM210100 00000KT P6SM SKC=



000
FTUS44 KSHV 192300
TAFMLU
TAF
KMLU 192336Z 2000/2024 VRB02KT P6SM SKC
      TEMPO 2011/2013 5SM BR SKC
     FM201700 VRB05KT P6SM FEW050=



000
FTUS44 KSHV 192300
TAFLFK
TAF
KLFK 192336Z 2000/2024 12004KT P6SM FEW045
     FM201000 15004KT 5SM BR SKC
      TEMPO 2011/2013 2SM BR
     FM201500 11006KT P6SM FEW035=



000
FTUS44 KSHV 192300
TAFELD
TAF
KELD 192336Z 2000/2024 VRB03KT P6SM SKC
     FM200700 00000KT 5SM BR SKC
      TEMPO 2010/2012 2SM BR
     FM201500 VRB04KT P6SM FEW050=



000
FTUS44 KSHV 192300
TAFTXK
TAF
KTXK 192336Z 2000/2024 VRB03KT P6SM SKC
      TEMPO 2010/2014 3SM BR
     FM201700 VRB05KT P6SM FEW050=



000
FTUS44 KSHV 192300
TAFSHV
TAF
KSHV 192336Z 2000/2024 09008KT P6SM SCT045
     FM200100 11004KT P6SM SKC
     FM201700 10007KT P6SM FEW050=



000
FTUS44 KSHV 192300
TAFTYR
TAF
KTYR 192336Z 2000/2024 09007KT P6SM SCT070
     FM200100 13004KT P6SM SCT250
     FM201600 12006KT P6SM FEW050=



000
FTUS44 KSHV 192300
TAFGGG
TAF
KGGG 192336Z 2000/2024 11005KT P6SM BKN035
     FM200100 13004KT P6SM SCT250
     FM201600 12006KT P6SM FEW050=



000
FTUS44 KSHV 191700
TAFGGG
TAF
KGGG 191740Z 1918/2018 11005KT P6SM BKN035
     FM200100 12004KT P6SM SCT250
     FM200900 13004KT 6SM BR SCT007
      TEMPO 2010/2014 3SM BR BKN007
     FM201500 14006KT P6SM FEW020=



000
FTUS44 KSHV 191700
TAFTXK
TAF
KTXK 191740Z 1918/2018 08004KT 5SM BR OVC006
     FM191900 08006KT 6SM HZ OVC011
     FM192000 07006KT P6SM BKN015
     FM192100 08005KT P6SM SCT040
     FM200000 VRB03KT P6SM SKC
      TEMPO 2010/2014 3SM BR=



000
FTUS44 KSHV 191700
TAFSHV
TAF
KSHV 191740Z 1918/2018 07007KT P6SM BKN035
     FM192000 09008KT P6SM SCT045
     FM200100 12004KT P6SM SKC
      TEMPO 2010/2013 5SM BR SKC=



000
FTUS44 KSHV 191700
TAFTYR
TAF
KTYR 191740Z 1918/2018 10005KT P6SM BKN035
     FM192000 09007KT P6SM SCT045
     FM200100 14004KT P6SM BKN250
     FM200900 15004KT 6SM BR SCT007
      TEMPO 2010/2014 3SM BR BKN007
     FM201500 14006KT P6SM FEW020=



000
FTUS44 KSHV 191700
TAFLFK
TAF
KLFK 191740Z 1918/2018 09007KT P6SM VCSH BKN035
     FM191900 10008KT P6SM VCTS BKN040CB
     FM200000 12004KT P6SM SCT050 BKN250
     FM200600 15004KT 6SM BR SCT007
      TEMPO 2008/2012 2SM BR BKN004
     FM201300 08004KT P6SM BKN014
     FM201500 11006KT P6SM FEW020=



000
FTUS44 KSHV 191700
TAFMLU
TAF
KMLU 191740Z 1918/2018 VRB03KT P6SM BKN035
     FM192000 09005KT P6SM SCT045
     FM200000 11004KT P6SM SKC
     FM200700 VRB03KT 5SM BR SKC
      TEMPO 2009/2012 2SM BR SKC=



000
FTUS44 KSHV 191700
TAFELD
TAF
KELD 191740Z 1918/2018 VRB04KT P6SM OVC011
     FM191900 08005KT P6SM BKN025
     FM192000 09007KT P6SM SCT045
     FM200000 VRB03KT P6SM SKC
      TEMPO 2010/2012 3SM BR=



000
FTUS44 KSHV 191700 AAB
TAFELD
TAF AMD
KELD 191701Z 1917/2012 VRB04KT P6SM BKN015
     FM191900 08005KT P6SM SCT030
     FM200000 VRB03KT P6SM SKC
      TEMPO 2010/2012 3SM BR=



000
FTUS44 KSHV 191700 AAB
TAFLFK
TAF AMD
KLFK 191700Z 1917/2012 VRB05KT P6SM OVC015
     FM191900 12008KT P6SM VCTS BKN035CB
     FM200000 12004KT P6SM SCT040
      TEMPO 2008/2012 4SM BR BKN015=



000
FTUS44 KSHV 191600 AAC
TAFTYR
TAF AMD
KTYR 191659Z 1917/2012 08005KT P6SM BKN035
     FM192000 09007KT P6SM SCT040
     FM200100 14004KT P6SM SKC
      TEMPO 2008/2012 BKN020=



000
FTUS44 KSHV 191600 AAB
TAFTXK
TAF AMD
KTXK 191657Z 1917/2012 06005KT 6SM BR OVC006
     FM191900 08006KT 6SM HZ OVC011
     FM192000 07006KT P6SM BKN015
     FM192100 08005KT P6SM SCT040
     FM200000 VRB03KT P6SM SKC
      TEMPO 2010/2012 3SM BR=



000
FTUS44 KSHV 191400 AAB
TAFSHV
TAF AMD
KSHV 191453Z 1915/2012 06005KT 6SM HZ OVC006
     FM191600 10006KT P6SM BKN011
     FM191700 11006KT P6SM SCT035
     FM200400 14004KT P6SM SKC=



000
FTUS44 KSHV 191400 AAB
TAFTYR
TAF AMD
KTYR 191448Z 1915/2012 06005KT P6SM SCT020
     FM191700 10007KT P6SM SCT040
     FM200100 14004KT P6SM SKC
      TEMPO 2008/2012 BKN020=



000
FTUS44 KSHV 191400 AAA
TAFELD
TAF AMD
KELD 191432Z 1915/2012 01005KT 2SM BR OVC002
     FM191600 10005KT 5SM BR FEW002 OVC006
     FM191700 09006KT P6SM SCT040
     FM191800 08005KT P6SM SCT050
     FM200000 VRB03KT P6SM SKC
      TEMPO 2010/2012 3SM BR=



000
FTUS44 KSHV 191300 AAA
TAFSHV
TAF AMD
KSHV 191352Z 1914/2012 03004KT P6SM BKN008 BKN280
      TEMPO 1914/1915 BKN011
     FM191500 07006KT P6SM BKN015
     FM191700 11006KT P6SM SCT035
     FM200400 14004KT P6SM SKC=



000
FTUS44 KSHV 191300 AAA
TAFTXK
TAF AMD
KTXK 191349Z 1914/2012 05006KT 1/4SM FG VV002
     FM191600 10005KT 3SM BR FEW002 OVC006
     FM191700 09006KT P6SM SCT040
     FM200000 VRB03KT P6SM SKC
      TEMPO 2010/2012 3SM BR=



000
FTUS44 KSHV 191200 AAA
TAFLFK
TAF AMD
KLFK 191238Z 1913/2012 00000KT P6SM SCT005 BKN050
      TEMPO 1913/1914 3SM BR OVC004
     FM191600 11005KT P6SM SCT030
     FM191900 12008KT P6SM VCTS BKN035CB
     FM200000 12004KT P6SM SCT040
      TEMPO 2008/2012 4SM BR BKN015=



000
FTUS44 KSHV 191200 AAA
TAFTYR
TAF AMD
KTYR 191210Z 1912/2012 VRB03KT P6SM SCT001
      TEMPO 1912/1913 3SM BR OVC001
     FM191400 VRB03KT P6SM BKN020
      TEMPO 1914/1915 4SM BR OVC010
     FM191600 11006KT P6SM SCT025
     FM200100 14004KT P6SM SKC
      TEMPO 2008/2012 BKN020=



000
FTUS44 KSHV 191100
TAFMLU
TAF
KMLU 191120Z 1912/2012 VRB03KT P6SM SKC
      TEMPO 1913/1915 BKN015
     FM191900 09005KT P6SM SCT030
     FM200700 VRB03KT 5SM BR BKN020
      TEMPO 2009/2012 2SM BR SKC=



000
FTUS44 KSHV 191100
TAFTXK
TAF
KTXK 191120Z 1912/2012 07004KT P6SM SCT008 BKN015
      TEMPO 1912/1914 4SM BR OVC005
     FM191600 10005KT P6SM SCT040
     FM200000 VRB03KT P6SM SKC
      TEMPO 2010/2012 3SM BR=



000
FTUS44 KSHV 191100
TAFSHV
TAF
KSHV 191120Z 1912/2012 VRB03KT P6SM SKC
      TEMPO 1912/1915 BKN015
     FM191700 11006KT P6SM SCT035
     FM200400 14004KT P6SM SKC=



000
FTUS44 KSHV 191100
TAFGGG
TAF
KGGG 191120Z 1912/2012 00000KT P6SM BKN040
      TEMPO 1912/1914 OVC020
     FM191600 11006KT P6SM SCT030
     FM200100 14004KT P6SM SKC
      TEMPO 2009/2012 BKN020=



000
FTUS44 KSHV 191100
TAFTYR
TAF
KTYR 191120Z 1912/2012 VRB03KT 1/4SM FG VV001
      TEMPO 1913/1914 3SM BR BKN005
     FM191400 VRB03KT P6SM BKN020
      TEMPO 1914/1915 4SM BR OVC010
     FM191600 11006KT P6SM SCT025
     FM200100 14004KT P6SM SKC
      TEMPO 2008/2012 BKN020=



000
FTUS44 KSHV 191100
TAFLFK
TAF
KLFK 191120Z 1912/2012 VRB04KT P6SM BKN050
     FM191600 11005KT P6SM SCT030
     FM191900 12008KT P6SM VCTS BKN035CB
     FM200000 12004KT P6SM SCT040
      TEMPO 2008/2012 4SM BR BKN015=



000
FTUS44 KSHV 191100
TAFELD
TAF
KELD 191120Z 1912/2012 02004KT 5SM BR BKN005
      TEMPO 1912/1913 2SM BR OVC002
     FM191400 04004KT P6SM BKN040
      TEMPO 1914/1915 4SM BR OVC020
     FM191800 08005KT P6SM SCT050
     FM200000 VRB03KT P6SM SKC
      TEMPO 2010/2012 3SM BR=



000
FTUS44 KSHV 191000 AAA
TAFSHV
TAF AMD
KSHV 191024Z 1910/2006 VRB03KT P6SM SCT150 BKN250
      TEMPO 1911/1915 3SM BR BKN007
     FM191700 11006KT P6SM SCT035=



000
FTUS44 KSHV 191000 AAA
TAFTYR
TAF AMD
KTYR 191022Z 1910/2006 15004KT P6SM OVC003
      TEMPO 1910/1914 3SM BR SCT003
     FM191400 11006KT P6SM OVC010
     FM191600 11006KT P6SM BKN035=



000
FTUS44 KSHV 190900 AAA
TAFELD
TAF AMD
KELD 190913Z 1909/2006 04004KT P6SM BKN040 BKN250
      TEMPO 1909/1913 4SM BR BKN002
     FM191500 08005KT P6SM SCT250=



000
FTUS44 KSHV 190900 AAB
TAFTXK
TAF AMD
KTXK 190912Z 1909/2006 07005KT 5SM BR SCT006 OVC012
      TEMPO 1909/1913 2SM BR OVC003
     FM191300 08005KT P6SM BKN025
      TEMPO 1913/1915 4SM BR OVC015
     FM191700 10005KT P6SM SCT035=



000
FTUS44 KSHV 190800 AAA
TAFGGG
TAF AMD
KGGG 190826Z 1908/2006 00000KT P6SM BKN250
      TEMPO 1910/1913 3SM BR OVC004
     FM191300 11006KT P6SM SCT015
      TEMPO 1913/1915 BKN008
     FM191600 11006KT P6SM BKN035=



000
FTUS44 KSHV 190800 AAA
TAFLFK
TAF AMD
KLFK 190824Z 1908/2006 00000KT P6SM BKN050
      TEMPO 1910/1914 3SM BR BKN008 OVC020
     FM191800 12008KT P6SM VCTS BKN035CB=



000
FTUS44 KSHV 190800 AAA
TAFTXK
TAF AMD
KTXK 190822Z 1908/2006 07005KT 5SM BR SCT008 OVC020
      TEMPO 1909/1913 2SM BR BKN006
     FM191300 08005KT P6SM BKN025
      TEMPO 1913/1915 4SM BR OVC015
     FM191700 10005KT P6SM SCT035=



000
FTUS44 KSHV 190800 AAA
TAFMLU
TAF AMD
KMLU 190820Z 1908/2006 00000KT P6SM SKC
      TEMPO 1911/1915 3SM BR BKN010
     FM191500 08004KT P6SM BKN025
     FM191700 09004KT P6SM BKN035=



000
FTUS44 KSHV 190500
TAFSHV
TAF
KSHV 190520Z 1906/2006 VRB03KT P6SM SCT150 BKN250
     FM191100 VRB02KT P6SM BKN015
      TEMPO 1911/1915 3SM BR BKN007
     FM191700 11006KT P6SM SCT035=



000
FTUS44 KSHV 190500
TAFGGG
TAF
KGGG 190520Z 1906/2006 00000KT P6SM BKN250
     FM190800 13004KT P6SM BKN007
      TEMPO 1909/1913 3SM BR OVC004
     FM191400 11006KT P6SM OVC010
     FM191600 11006KT P6SM BKN035=



000
FTUS44 KSHV 190500
TAFMLU
TAF
KMLU 190520Z 1906/2006 00000KT P6SM FEW002
      TEMPO 1906/1908 2SM BR BKN002
     FM190800 00000KT 3SM BR OVC005
      TEMPO 1908/1912 1/4SM FG VV001
     FM191300 00000KT 5SM BR BKN009
     FM191700 09004KT P6SM BKN035=



000
FTUS44 KSHV 190500
TAFTXK
TAF
KTXK 190520Z 1906/2006 07005KT P6SM VCSH BKN050
     FM190800 VRB02KT 5SM BR OVC015
      TEMPO 1910/1914 2SM BR BKN006
     FM191700 10005KT P6SM SCT035=



000
FTUS44 KSHV 190500
TAFTYR
TAF
KTYR 190520Z 1906/2006 15004KT P6SM BKN250
     FM190700 13004KT P6SM BKN007
      TEMPO 1909/1913 3SM BR OVC004
     FM191400 11006KT P6SM OVC010
     FM191600 11006KT P6SM BKN035=



000
FTUS44 KSHV 190500
TAFLFK
TAF
KLFK 190520Z 1906/2006 09004KT P6SM OVC050
     FM190800 VRB02KT 3SM BR OVC005
      TEMPO 1908/1912 1/2SM FG VV002
     FM191500 09004KT 5SM BR OVC009
     FM191700 11005KT P6SM OVC015
     FM192000 12008KT P6SM VCTS BKN035CB=



000
FTUS44 KSHV 190500
TAFELD
TAF
KELD 190520Z 1906/2006 04004KT P6SM BKN040 BKN250
      TEMPO 1909/1913 4SM BR SCT250
     FM191500 08005KT P6SM SCT250=



000
FTUS44 KSHV 190300 AAA
TAFMLU
TAF AMD
KMLU 190351Z 1904/1924 00000KT 5SM BR SCT250
      TEMPO 1904/1908 3/4SM BR VV002
     FM190800 00000KT 1SM BR OVC005
      TEMPO 1908/1912 1/4SM FG VV001
     FM191300 00000KT 5SM BR BKN009
     FM191500 09004KT P6SM SCT035=



000
FTUS44 KSHV 190300 AAB
TAFLFK
TAF AMD
KLFK 190301Z 1903/1924 VRB03KT P6SM OVC040
     FM190600 00000KT 5SM BR OVC005
      TEMPO 1908/1912 1/2SM FG VV002
     FM191500 09004KT 5SM BR OVC009
     FM191700 11005KT P6SM OVC015
     FM192000 12008KT P6SM VCTS BKN035CB=



000
FTUS44 KSHV 190100 AAA
TAFLFK
TAF AMD
KLFK 190158Z 1902/1924 VRB03KT 5SM BR OVC005
      TEMPO 1908/1912 1/2SM FG VV002
     FM191500 09004KT 5SM BR OVC009
     FM191700 11005KT P6SM OVC015
     FM192000 12008KT P6SM VCTS BKN035CB=



000
FTUS44 KSHV 190000 AAA
TAFELD
TAF AMD
KELD 190052Z 1901/1924 VRB04KT P6SM SCT250
      TEMPO 1901/1903 5SM -RA BR BKN025
     FM190300 00000KT P6SM BKN250
      TEMPO 1909/1912 4SM BR
     FM191500 08005KT P6SM SCT250=



000
FTUS44 KSHV 182300
TAFLFK
TAF
KLFK 182332Z 1900/1924 VRB03KT 5SM BR BKN007
     FM190500 00000KT 3SM BR OVC004
      TEMPO 1908/1912 1/2SM FG VV002
     FM191500 09004KT 5SM BR OVC009
     FM191700 11005KT P6SM OVC015
     FM192000 12008KT P6SM VCTS BKN035CB=



000
FTUS44 KSHV 182300
TAFMLU
TAF
KMLU 182332Z 1900/1924 VRB03KT P6SM BKN250
     FM190600 00000KT 5SM BR SCT250
      TEMPO 1909/1913 1SM BR
     FM191500 09004KT P6SM SCT035=



000
FTUS44 KSHV 182300
TAFTXK
TAF
KTXK 182332Z 1900/1924 VRB03KT P6SM SCT250
     FM190600 00000KT 5SM BR SCT250
      TEMPO 1910/1912 2SM BR
     FM191500 10005KT P6SM SCT035=



000
FTUS44 KSHV 182300
TAFELD
TAF
KELD 182332Z 1900/1924 00000KT P6SM SCT250
      TEMPO 1909/1912 4SM BR
     FM191500 08005KT P6SM SCT250=



000
FTUS44 KSHV 182300
TAFSHV
TAF
KSHV 182332Z 1900/1924 14006KT P6SM SCT030 BKN150
     FM190300 VRB03KT P6SM BKN250
     FM191100 VRB02KT P6SM BKN015
      TEMPO 1911/1915 3SM BR BKN007
     FM191700 11006KT P6SM SCT035=



000
FTUS44 KSHV 182300
TAFTYR
TAF
KTYR 182332Z 1900/1924 15004KT P6SM BKN250
     FM190700 13004KT P6SM BKN007
      TEMPO 1909/1913 3SM BR OVC004
     FM191400 11006KT P6SM OVC010
     FM191600 11006KT P6SM BKN035=



000
FTUS44 KSHV 182300
TAFGGG
TAF
KGGG 182332Z 1900/1924 00000KT P6SM BKN250
     FM190700 13004KT P6SM BKN007
      TEMPO 1909/1913 3SM BR OVC004
     FM191400 11006KT P6SM OVC010
     FM191600 11006KT P6SM BKN035=



000
FTUS44 KSHV 182000 AAA
TAFGGG
TAF AMD
KGGG 182056Z 1821/1918 14010KT 5SM -SHRA SCT015 BKN045 OVC110
      TEMPO 1821/1823 2SM +TSRA BKN015 OVC040CB
     FM190100 15004KT P6SM BKN100
     FM190300 12004KT P6SM BKN250
     FM190700 13004KT P6SM BKN007
      TEMPO 1909/1913 3SM BR OVC004
     FM191600 11006KT P6SM OVC010=



000
FTUS44 KSHV 182000 AAA
TAFELD
TAF AMD
KELD 182050Z 1821/1918 22005KT P6SM SCT040 BKN250
     FM190000 VRB03KT P6SM SCT100 BKN250
     FM190600 VRB03KT P6SM BKN250
      TEMPO 1910/1912 4SM BR SKC=



000
FTUS44 KSHV 181900 AAA
TAFTXK
TAF AMD
KTXK 181924Z 1819/1918 10004KT P6SM BKN060
     FM190100 VRB03KT P6SM SCT150 BKN250
      TEMPO 1910/1912 3SM BR SKC=



000
FTUS44 KSHV 181700
TAFELD
TAF
KELD 181739Z 1818/1918 14004KT P6SM VCSH SCT028 BKN060
     FM181900 18005KT P6SM VCTS BKN025CB
     FM182300 18004KT P6SM SCT060 BKN100
     FM190600 VRB03KT P6SM BKN250
      TEMPO 1910/1912 4SM BR SKC=



000
FTUS44 KSHV 181700
TAFTYR
TAF
KTYR 181739Z 1818/1918 VRB04KT P6SM VCSH BKN025
     FM182100 15006KT P6SM VCTS BKN040CB
     FM190100 15004KT P6SM SCT150 BKN250
     FM190700 13004KT P6SM BKN007
      TEMPO 1909/1913 3SM BR OVC004
     FM191600 11006KT P6SM OVC010=



000
FTUS44 KSHV 181700
TAFMLU
TAF
KMLU 181739Z 1818/1918 11003KT 6SM HZ BKN035
     FM182200 16005KT P6SM VCTS BKN050CB BKN150
     FM190100 VRB03KT P6SM SCT150 BKN250
      TEMPO 1909/1913 1SM BR
     FM191500 09004KT 5SM HZ BKN015
     FM191700 05004KT 6SM HZ BKN025=



000
FTUS44 KSHV 181700
TAFTXK
TAF
KTXK 181739Z 1818/1918 02008KT 3SM TSRA SCT015 OVC040CB
      TEMPO 1818/1819 VRB15G25KT 1SM +TSRA OVC015CB
     FM182000 11004KT P6SM VCTS BKN060CB
     FM182200 11006KT P6SM BKN060
     FM190100 VRB03KT P6SM SCT150 BKN250
      TEMPO 1910/1912 3SM BR SKC=



000
FTUS44 KSHV 181700
TAFGGG
TAF
KGGG 181739Z 1818/1918 VRB03KT P6SM BKN025
     FM182100 15006KT P6SM VCTS BKN040CB
     FM190100 15004KT P6SM SCT150 BKN250
     FM190700 13004KT P6SM BKN007
      TEMPO 1909/1913 3SM BR OVC004
     FM191600 11006KT P6SM OVC010=



000
FTUS44 KSHV 181700
TAFSHV
TAF
KSHV 181739Z 1818/1918 VRB03KT P6SM SCT020 BKN060 OVC190
     FM182000 14006KT P6SM SCT050 BKN150
     FM190300 VRB03KT P6SM SCT150 BKN250
      TEMPO 1911/1915 3SM BR BKN007
     FM191500 11006KT P6SM BKN012=



000
FTUS44 KSHV 181700
TAFLFK
TAF
KLFK 181739Z 1818/1918 16005KT 6SM -RA OVC009
     FM181900 14005KT P6SM VCTS SCT010 BKN035CB
      TEMPO 1819/1823 2SM +TSRA OVC020CB
     FM190100 14003KT P6SM BKN040
     FM190300 VRB03KT 6SM BR BKN007
     FM190500 00000KT 3SM BR OVC004
      TEMPO 1908/1912 1/2SM FG VV002
     FM191500 09004KT 5SM BR SCT004 OVC009
     FM191600 11005KT P6SM OVC011=



000
FTUS44 KSHV 181500 AAA
TAFLFK
TAF AMD
KLFK 181503Z 1815/1912 09004KT P6SM VCSH OVC004
     FM181700 12006KT P6SM VCTS SCT008 BKN040CB BKN100
     FM181900 14005KT P6SM OVC050
      TEMPO 1819/1823 1SM +TSRA OVC020CB
     FM190100 14003KT P6SM BKN120 BKN250
     FM190600 VRB03KT 3SM BR SCT250
      TEMPO 1909/1912 1/2SM FG BKN010=



000
FTUS44 KSHV 181400 AAB
TAFGGG
TAF AMD
KGGG 181448Z 1815/1912 18005KT P6SM VCSH BKN005 BKN140
     FM181600 16007KT P6SM SCT015 BKN140
     FM181700 16007KT P6SM SCT035 BKN250
     FM190000 15004KT P6SM BKN250
     FM190500 VRB03KT P6SM BKN040
      TEMPO 1910/1912 3SM BR=



000
FTUS44 KSHV 181400 AAA
TAFTYR
TAF AMD
KTYR 181446Z 1815/1912 18005KT P6SM VCSH BKN005 BKN012 OVC140
     FM181600 16007KT P6SM SCT015 BKN140
     FM182300 15004KT P6SM BKN120
     FM190400 VRB03KT P6SM BKN040
      TEMPO 1910/1912 3SM BR=



000
FTUS44 KSHV 181300 AAA
TAFGGG
TAF AMD
KGGG 181338Z 1814/1912 19010KT 5SM -RA BR FEW004 BKN140
     FM181400 18009KT P6SM VCSH BKN140
     FM181800 16007KT P6SM VCTS BKN040CB BKN100
     FM190000 15004KT P6SM BKN120
     FM190500 VRB03KT P6SM BKN040
      TEMPO 1910/1912 3SM BR=



000
FTUS44 KSHV 181100
TAFGGG
TAF
KGGG 181122Z 1812/1912 21004KT P6SM SCT060 BKN120
     FM181800 16007KT P6SM VCTS BKN040CB BKN100
     FM190000 15004KT P6SM BKN120
     FM190500 VRB03KT P6SM BKN040
      TEMPO 1910/1912 3SM BR=



000
FTUS44 KSHV 181100
TAFMLU
TAF
KMLU 181122Z 1812/1912 00000KT P6SM BKN250
     FM182200 16005KT P6SM VCTS SCT050CB BKN150
     FM190200 VRB03KT P6SM BKN150 BKN250
      TEMPO 1908/1912 1SM BR SKC=



000
FTUS44 KSHV 181100
TAFELD
TAF
KELD 181122Z 1812/1912 00000KT P6SM BKN250
      TEMPO 1812/1814 3SM BR
     FM182000 18005KT P6SM VCTS SCT050CB BKN150
     FM182300 18004KT P6SM SCT060 BKN150
     FM190600 VRB03KT P6SM SCT040
      TEMPO 1910/1912 4SM BR SKC=



000
FTUS44 KSHV 181100
TAFLFK
TAF
KLFK 181122Z 1812/1912 00000KT 3SM BR BKN005
      TEMPO 1812/1814 1/2SM -SHRA FG VV002
     FM181500 VRB04KT P6SM VCSH BKN030
     FM181700 15006KT P6SM VCTS BKN040CB BKN100
      TEMPO 1819/1823 1SM +TSRA BR OVC020CB
     FM190100 14003KT P6SM BKN120 BKN250
     FM190600 VRB03KT 3SM BR SCT250
      TEMPO 1909/1912 1/2SM FG BKN010=



000
FTUS44 KSHV 181100
TAFSHV
TAF
KSHV 181122Z 1812/1912 18004KT P6SM SCT150 BKN250
     FM182000 15005KT P6SM VCTS BKN050CB BKN150
     FM190300 VRB03KT P6SM BKN150
      TEMPO 1909/1912 3SM BR BKN020=



000
FTUS44 KSHV 181100
TAFTXK
TAF
KTXK 181122Z 1812/1912 22005KT P6SM SCT050 BKN150
     FM181600 18006KT P6SM VCTS BKN040CB
     FM182100 18004KT P6SM SCT060
     FM190600 VRB03KT P6SM BKN040
      TEMPO 1910/1912 2SM BR SKC=



000
FTUS44 KSHV 181100
TAFTYR
TAF
KTYR 181122Z 1812/1912 21004KT P6SM SCT050 BKN100
     FM181700 16007KT P6SM VCTS BKN040CB BKN100
     FM182300 15004KT P6SM BKN120
     FM190400 VRB03KT P6SM BKN040
      TEMPO 1910/1912 3SM BR=



000
FTUS44 KSHV 180900 AAA
TAFTXK
TAF AMD
KTXK 180919Z 1809/1906 VRB04KT P6SM BKN080
     FM181900 18005KT P6SM VCTS BKN050CB BKN150
     FM190300 14003KT P6SM BKN060 BKN120=



000
FTUS44 KSHV 180800 AAA
TAFELD
TAF AMD
KELD 180815Z 1808/1906 20004KT P6SM BKN250
      TEMPO 1811/1813 4SM BR BKN015
     FM181600 VRB04KT P6SM FEW035 BKN250
     FM181800 18004KT P6SM SCT050 SCT120 BKN250
     FM190200 VRB03KT P6SM SCT120 BKN250=



000
FTUS44 KSHV 180800 AAA
TAFGGG
TAF AMD
KGGG 180813Z 1808/1906 19004KT P6SM BKN150 BKN250
      TEMPO 1810/1813 BKN007
     FM181300 16006KT P6SM SCT030 BKN250
      TEMPO 1813/1815 BKN020
     FM181800 16006KT P6SM VCTS BKN040CB BKN100
     FM190300 15004KT P6SM BKN120 BKN250=



000
FTUS44 KSHV 180800 AAA
TAFTYR
TAF AMD
KTYR 180812Z 1808/1906 22004KT P6SM BKN150 BKN250
      TEMPO 1809/1813 BKN007
     FM181300 16006KT P6SM SCT030 BKN250
      TEMPO 1813/1815 BKN020
     FM181800 16007KT P6SM VCTS BKN040CB BKN100
     FM190300 15004KT P6SM BKN120 BKN250=



000
FTUS44 KSHV 180800 AAA
TAFMLU
TAF AMD
KMLU 180811Z 1808/1906 00000KT P6SM BKN250
      TEMPO 1811/1813 2SM BR BKN015
     FM181300 VRB03KT P6SM SCT025 BKN250
     FM181900 16005KT P6SM SCT050 SCT150 BKN250
     FM190100 VRB03KT P6SM BKN150 BKN250=



000
FTUS44 KSHV 180800 AAA
TAFLFK
TAF AMD
KLFK 180809Z 1808/1906 12004KT 3SM BR BKN002
      TEMPO 1808/1812 1/4SM FG VV001
     FM181300 15004KT P6SM SCT025 BKN250
      TEMPO 1813/1815 BKN015
     FM181700 15006KT P6SM VCTS BKN040CB BKN100
     FM190400 14003KT P6SM BKN120 BKN250=



000
FTUS44 KSHV 180500
TAFMLU
TAF
KMLU 180535Z 1806/1906 00000KT P6SM BKN250
     FM180900 VRB03KT 5SM BR BKN015
      TEMPO 1809/1813 00000KT 2SM BR BKN015
     FM181300 VRB03KT P6SM SCT025 BKN250
     FM181900 16005KT P6SM SCT050 SCT150 BKN250
     FM190100 VRB03KT P6SM BKN150 BKN250=



000
FTUS44 KSHV 180500
TAFLFK
TAF
KLFK 180535Z 1806/1906 VRB03KT P6SM VCSH BKN150 BKN250
      TEMPO 1806/1808 6SM -RA BKN040
     FM180800 VRB03KT 4SM BR BKN020
      TEMPO 1809/1813 1SM BR OVC010
     FM181600 15004KT P6SM FEW035 BKN250
     FM181700 15006KT P6SM VCTS BKN040CB BKN100
     FM190400 14003KT P6SM BKN120 BKN250=



000
FTUS44 KSHV 180500
TAFGGG
TAF
KGGG 180535Z 1806/1906 19004KT P6SM BKN150 BKN250
     FM180900 VRB03KT 6SM BR BKN015
      TEMPO 1809/1813 00000KT 4SM BR BKN007
     FM181500 16006KT P6SM FEW035 BKN250
     FM181800 16006KT P6SM VCTS BKN040CB BKN100
     FM190300 15004KT P6SM BKN120 BKN250=



000
FTUS44 KSHV 180500
TAFTXK
TAF
KTXK 180535Z 1806/1906 VRB03KT P6SM BKN060 OVC080
     FM181000 VRB03KT 3SM BR BKN010
      TEMPO 1810/1813 00000KT 1SM BR BKN005
     FM181600 VRB04KT P6SM FEW035 BKN250
     FM181900 18005KT P6SM VCTS BKN050CB BKN150
     FM190300 14003KT P6SM BKN060 BKN120=



000
FTUS44 KSHV 180500
TAFSHV
TAF
KSHV 180535Z 1806/1906 17004KT P6SM FEW150 BKN250
     FM181900 15005KT P6SM VCTS SCT050CB BKN150 BKN250
     FM190200 VRB03KT P6SM BKN150 BKN250=



000
FTUS44 KSHV 180500
TAFTYR
TAF
KTYR 180535Z 1806/1906 19005KT P6SM BKN150 BKN250
     FM180900 VRB03KT 6SM BR BKN015
      TEMPO 1809/1813 00000KT 5SM BR BKN007
     FM181600 16006KT P6SM FEW035 BKN250
     FM181800 16007KT P6SM VCTS BKN040CB BKN100
     FM190300 15004KT P6SM BKN120 BKN250=



000
FTUS44 KSHV 180500
TAFELD
TAF
KELD 180535Z 1806/1906 VRB04KT P6SM BKN250
     FM180900 VRB03KT 3SM BR BKN010
      TEMPO 1809/1813 00000KT 1SM BR BKN005
     FM181600 VRB04KT P6SM FEW035 BKN250
     FM181800 18004KT P6SM SCT050 SCT120 BKN250
     FM190200 VRB03KT P6SM SCT120 BKN250=



000
FTUS44 KSHV 172300
TAFGGG
TAF
KGGG 172339Z 1800/1824 18010KT P6SM VCTS BKN040CB BKN120
     FM180300 19003KT P6SM BKN100 BKN250
     FM180900 VRB03KT 6SM BR BKN015
      TEMPO 1809/1813 00000KT 4SM BR BKN007
     FM181500 16006KT P6SM FEW035 BKN250
     FM181800 16006KT P6SM VCTS BKN040CB BKN100=



000
FTUS44 KSHV 172300
TAFTXK
TAF
KTXK 172339Z 1800/1824 06005KT P6SM BKN050 BKN080 BKN250
     FM180300 VRB03KT P6SM BKN150 BKN250
     FM180900 VRB03KT 3SM BR BKN010
      TEMPO 1809/1813 00000KT 1SM BR BKN005
     FM181600 VRB04KT P6SM FEW035 BKN250
     FM181900 18005KT P6SM VCTS BKN050CB BKN150=



000
FTUS44 KSHV 172300
TAFSHV
TAF
KSHV 172339Z 1800/1824 11008KT P6SM SCT040 SCT150 BKN250
     FM180200 VRB03KT P6SM BKN150 BKN250
      TEMPO 1809/1813 00000KT 5SM BR
     FM181600 VRB04KT P6SM FEW035 BKN250
     FM181900 15005KT P6SM VCTS SCT050CB BKN150 BKN250=



000
FTUS44 KSHV 172300
TAFELD
TAF
KELD 172339Z 1800/1824 VRB04KT P6SM SCT250
     FM180900 VRB03KT 3SM BR BKN010
      TEMPO 1809/1813 00000KT 1SM BR BKN005
     FM181600 VRB04KT P6SM FEW035 BKN250
     FM181800 18004KT P6SM SCT050 SCT120 SCT250=



000
FTUS44 KSHV 172300
TAFMLU
TAF
KMLU 172339Z 1800/1824 VRB04KT P6SM SCT150 SCT250
     FM180900 VRB03KT 5SM BR BKN015
      TEMPO 1809/1813 00000KT 2SM BR
     FM181600 VRB04KT P6SM FEW035 BKN250
     FM181900 16005KT P6SM SCT050 SCT150 BKN250=



000
FTUS44 KSHV 172300
TAFLFK
TAF
KLFK 172339Z 1800/1824 18006KT P6SM VCTS BKN035CB BKN120
      TEMPO 1800/1803 3SM -TSRA OVC030CB
     FM180300 VRB03KT P6SM BKN100 BKN250
     FM180700 VRB03KT 4SM BR BKN020
      TEMPO 1809/1813 1SM BR OVC010
     FM181600 15004KT P6SM FEW035 BKN250
     FM181700 15006KT P6SM VCTS BKN040CB BKN100=



000
FTUS44 KSHV 172300
TAFTYR
TAF
KTYR 172339Z 1800/1824 11007KT P6SM VCTS SCT040CB BKN080 BKN150
     FM180200 19004KT P6SM BKN150 BKN250
     FM180900 VRB03KT 6SM BR BKN015
      TEMPO 1809/1813 00000KT 5SM BR BKN007
     FM181600 16006KT P6SM FEW035 BKN250
     FM181800 16007KT P6SM VCTS BKN040CB BKN100=



    US Dept of Commerce
    National Oceanic and Atmospheric Administration
    National Weather Service
    1325 East West Highway
    Silver Spring, MD 20910
    Page Author: NWS Internet Services Team
Disclaimer
Information Quality
Credits
Glossary
Privacy Policy
Freedom of Information Act (FOIA)
About Us
Career Opportunities